Time,TemperatureF,DewpointF,PressureIn,WindDirection,WindDirectionDegrees,WindSpeedMPH,WindSpeedGustMPH,Humidity,HourlyPrecipIn,Conditions,Clouds,dailyrainin,SoftwareType,DateUTC
2013-07-12 00:02:00,74.2,70.1,29.99,ENE,65,1.1,1.1,87,0.00,RA,,0.00,WeatherDisplay:10.37,2013-07-12 05:02:00,
2013-07-12 00:07:00,74.2,70.1,29.98,ENE,65,0.0,0.0,87,0.00,RA,,0.00,WeatherDisplay:10.37,2013-07-12 05:07:00,
2013-07-12 00:12:00,74.2,70.1,29.98,ENE,65,0.0,0.0,87,0.00,CLR,,0.00,WeatherDisplay:10.37,2013-07-12 05:12:00,
2013-07-12 00:17:00,74.0,69.9,29.98,ENE,65,0.0,0.0,87,0.00,CLR,,0.00,WeatherDisplay:10.37,2013-07-12 05:17:00,
2013-07-12 00:22:00,74.0,69.9,29.98,ENE,65,0.0,0.0,87,0.00,CLR,,0.00,WeatherDisplay:10.37,2013-07-12 05:22:00,
2013-07-12 00:27:00,73.9,70.1,29.98,ENE,65,0.0,0.0,88,0.00,CLR,,0.00,WeatherDisplay:10.37,2013-07-12 05:27:00,
2013-07-12 00:32:00,73.7,70.3,29.99,ENE,65,0.0,0.0,89,0.00,CLR,,0.00,WeatherDisplay:10.37,2013-07-12 05:32:00,
2013-07-12 00:37:00,73.5,70.1,29.99,ENE,65,0.0,0.0,89,0.00,CLR,,0.00,WeatherDisplay:10.37,2013-07-12 05:37:00,
2013-07-12 00:42:00,73.3,69.9,29.99,ENE,65,0.0,0.0,89,0.00,CLR,,0.00,WeatherDisplay:10.37,2013-07-12 05:42:00,
2013-07-12 00:47:00,73.2,69.8,29.99,ENE,65,0.0,0.0,89,0.00,CLR,,0.00,WeatherDisplay:10.37,2013-07-12 05:47:00,
2013-07-12 00:52:00,73.0,69.6,29.98,ENE,65,0.0,0.0,89,0.00,CLR,,0.00,WeatherDisplay:10.37,2013-07-12 05:52:00,
2013-07-12 00:57:00,73.0,69.9,29.98,ENE,65,0.0,0.0,90,0.00,CLR,,0.00,WeatherDisplay:10.37,2013-07-12 05:57:00,
2013-07-12 01:02:00,72.8,69.7,29.98,ENE,65,0.0,0.0,90,0.00,CLR,,0.00,WeatherDisplay:10.37,2013-07-12 06:02:00,
2013-07-12 01:07:00,72.7,69.6,29.98,ENE,65,0.0,0.0,90,0.00,CLR,,0.00,WeatherDisplay:10.37,2013-07-12 06:07:00,
2013-07-12 01:12:00,72.5,69.7,29.98,ENE,65,0.0,0.0,91,0.00,CLR,,0.00,WeatherDisplay:10.37,2013-07-12 06:12:00,
2013-07-12 01:17:00,72.5,69.7,29.98,ENE,65,0.0,0.0,91,0.00,CLR,,0.00,WeatherDisplay:10.37,2013-07-12 06:17:00,
2013-07-12 01:22:00,72.5,69.7,29.98,ENE,65,0.0,0.0,91,0.00,CLR,,0.00,WeatherDisplay:10.37,2013-07-12 06:22:00,
2013-07-12 01:27:00,72.5,69.7,29.98,ENE,65,0.0,0.0,91,0.00,CLR,,0.00,WeatherDisplay:10.37,2013-07-12 06:27:00,
2013-07-12 01:32:00,72.5,69.7,29.98,ENE,65,0.0,0.0,91,0.00,CLR,,0.00,WeatherDisplay:10.37,2013-07-12 06:32:00,
2013-07-12 01:37:00,72.7,69.6,29.98,ENE,65,0.0,0.0,90,0.00,CLR,,0.00,WeatherDisplay:10.37,2013-07-12 06:37:00,
2013-07-12 01:42:00,72.7,69.6,29.98,ENE,65,0.0,0.0,90,0.00,CLR,,0.00,WeatherDisplay:10.37,2013-07-12 06:42:00,
2013-07-12 01:47:00,72.7,69.6,29.98,ENE,65,0.0,0.0,90,0.00,CLR,,0.00,WeatherDisplay:10.37,2013-07-12 06:47:00,
2013-07-12 01:52:00,72.7,69.6,29.98,ENE,65,0.0,0.0,90,0.00,CLR,,0.00,WeatherDisplay:10.37,2013-07-12 06:52:00,
2013-07-12 01:57:00,72.5,69.7,29.97,ENE,65,0.0,0.0,91,0.00,CLR,,0.00,WeatherDisplay:10.37,2013-07-12 06:57:00,
2013-07-12 02:02:00,72.3,69.5,29.97,ENE,65,0.0,0.0,91,0.00,CLR,,0.00,WeatherDisplay:10.37,2013-07-12 07:02:00,
2013-07-12 02:07:00,72.1,69.3,29.97,ENE,65,0.0,0.0,91,0.00,CLR,,0.00,WeatherDisplay:10.37,2013-07-12 07:07:00,
2013-07-12 02:12:00,72.0,69.2,29.97,ENE,65,0.0,0.0,91,0.00,CLR,,0.00,WeatherDisplay:10.37,2013-07-12 07:12:00,
2013-07-12 02:17:00,72.0,69.2,29.97,ENE,65,0.0,0.0,91,0.00,CLR,,0.00,WeatherDisplay:10.37,2013-07-12 07:17:00,
2013-07-12 02:22:00,71.8,69.3,29.97,ENE,65,0.0,0.0,92,0.00,CLR,,0.00,WeatherDisplay:10.37,2013-07-12 07:22:00,
2013-07-12 02:27:00,71.6,69.2,29.97,ENE,65,0.0,0.0,92,0.00,CLR,,0.00,WeatherDisplay:10.37,2013-07-12 07:27:00,
2013-07-12 02:32:00,71.5,69.1,29.97,ENE,65,0.0,0.0,92,0.00,CLR,,0.00,WeatherDisplay:10.37,2013-07-12 07:32:00,
2013-07-12 02:37:00,71.3,68.9,29.97,ENE,65,0.0,0.0,92,0.00,CLR,,0.00,WeatherDisplay:10.37,2013-07-12 07:37:00,
2013-07-12 02:42:00,71.1,69.0,29.97,ENE,65,0.0,0.0,93,0.00,CLR,,0.00,WeatherDisplay:10.37,2013-07-12 07:42:00,
2013-07-12 02:47:00,71.1,69.0,29.97,ENE,65,0.0,0.0,93,0.00,CLR,,0.00,WeatherDisplay:10.37,2013-07-12 07:47:00,
2013-07-12 02:52:00,70.9,68.8,29.97,ENE,65,0.0,0.0,93,0.00,CLR,,0.00,WeatherDisplay:10.37,2013-07-12 07:52:00,
2013-07-12 02:57:00,70.8,68.7,29.97,ENE,65,0.0,0.0,93,0.00,CLR,,0.00,WeatherDisplay:10.37,2013-07-12 07:57:00,
2013-07-12 03:02:00,70.8,68.7,29.97,ENE,65,0.0,0.0,93,0.00,CLR,,0.00,WeatherDisplay:10.37,2013-07-12 08:02:00,
2013-07-12 03:07:00,70.6,68.5,29.97,ENE,65,0.0,0.0,93,0.00,CLR,,0.00,WeatherDisplay:10.37,2013-07-12 08:07:00,
2013-07-12 03:12:00,70.4,68.6,29.97,ENE,65,0.0,0.0,94,0.00,CLR,,0.00,WeatherDisplay:10.37,2013-07-12 08:12:00,
2013-07-12 03:17:00,70.4,68.6,29.97,ENE,65,0.0,0.0,94,0.00,CLR,,0.00,WeatherDisplay:10.37,2013-07-12 08:17:00,
2013-07-12 03:22:00,70.3,68.5,29.97,ENE,65,0.0,0.0,94,0.00,CLR,,0.00,WeatherDisplay:10.37,2013-07-12 08:22:00,
2013-07-12 03:27:00,70.3,68.5,29.97,ENE,65,0.0,0.0,94,0.00,CLR,,0.00,WeatherDisplay:10.37,2013-07-12 08:27:00,
2013-07-12 03:32:00,70.1,68.3,29.97,ENE,65,0.0,0.0,94,0.00,CLR,,0.00,WeatherDisplay:10.37,2013-07-12 08:32:00,
2013-07-12 03:37:00,70.1,68.3,29.97,ENE,65,0.0,0.0,94,0.00,CLR,,0.00,WeatherDisplay:10.37,2013-07-12 08:37:00,
2013-07-12 03:42:00,69.9,68.1,29.97,ENE,65,0.0,0.0,94,0.00,CLR,,0.00,WeatherDisplay:10.37,2013-07-12 08:42:00,
2013-07-12 03:47:00,69.9,68.1,29.97,ENE,65,0.0,0.0,94,0.00,CLR,,0.00,WeatherDisplay:10.37,2013-07-12 08:47:00,
2013-07-12 03:52:00,69.8,68.0,29.97,ENE,65,0.0,0.0,94,0.00,CLR,,0.00,WeatherDisplay:10.37,2013-07-12 08:52:00,
2013-07-12 03:57:00,69.8,68.0,29.97,ENE,65,0.0,0.0,94,0.00,CLR,,0.00,WeatherDisplay:10.37,2013-07-12 08:57:00,
2013-07-12 04:02:00,69.6,67.8,29.97,ENE,65,0.0,0.0,94,0.00,CLR,,0.00,WeatherDisplay:10.37,2013-07-12 09:02:00,
2013-07-12 04:07:00,69.6,68.1,29.97,ENE,65,0.0,0.0,95,0.00,CLR,,0.00,WeatherDisplay:10.37,2013-07-12 09:07:00,
2013-07-12 04:12:00,69.4,67.9,29.97,ENE,65,0.0,0.0,95,0.00,CLR,,0.00,WeatherDisplay:10.37,2013-07-12 09:12:00,
2013-07-12 04:17:00,69.4,67.9,29.97,ENE,65,0.0,0.0,95,0.00,CLR,,0.00,WeatherDisplay:10.37,2013-07-12 09:17:00,
2013-07-12 04:22:00,69.3,67.8,29.97,ENE,65,0.0,0.0,95,0.00,CLR,,0.00,WeatherDisplay:10.37,2013-07-12 09:22:00,
2013-07-12 04:27:00,69.1,67.6,29.97,ENE,65,0.0,0.0,95,0.00,CLR,,0.00,WeatherDisplay:10.37,2013-07-12 09:27:00,
2013-07-12 04:32:00,69.1,67.6,29.98,ENE,65,0.0,0.0,95,0.00,CLR,,0.00,WeatherDisplay:10.37,2013-07-12 09:32:00,
2013-07-12 04:37:00,68.9,67.4,29.98,ENE,65,0.0,0.0,95,0.00,CLR,,0.00,WeatherDisplay:10.37,2013-07-12 09:37:00,
2013-07-12 04:42:00,68.9,67.4,29.99,ENE,65,0.0,0.0,95,0.00,CLR,,0.00,WeatherDisplay:10.37,2013-07-12 09:42:00,
2013-07-12 04:47:00,68.8,67.3,29.99,ENE,65,0.0,0.0,95,0.00,CLR,,0.00,WeatherDisplay:10.37,2013-07-12 09:47:00,
2013-07-12 04:52:00,68.6,67.1,29.99,ENE,65,0.0,0.0,95,0.00,CLR,,0.00,WeatherDisplay:10.37,2013-07-12 09:52:00,
2013-07-12 04:57:00,68.6,67.1,29.99,ENE,65,0.0,0.0,95,0.00,CLR,,0.00,WeatherDisplay:10.37,2013-07-12 09:57:00,
2013-07-12 05:02:00,68.4,66.9,29.99,ENE,65,0.0,0.0,95,0.00,CLR,,0.00,WeatherDisplay:10.37,2013-07-12 10:02:00,
2013-07-12 05:07:00,68.4,66.9,29.99,ENE,65,0.0,0.0,95,0.00,CLR,,0.00,WeatherDisplay:10.37,2013-07-12 10:07:00,
2013-07-12 05:12:00,68.4,66.9,29.99,ENE,65,0.0,0.0,95,0.00,CLR,,0.00,WeatherDisplay:10.37,2013-07-12 10:12:00,
2013-07-12 05:17:00,68.6,67.1,29.99,ENE,65,0.0,0.0,95,0.00,CLR,,0.00,WeatherDisplay:10.37,2013-07-12 10:17:00,
2013-07-12 05:22:00,68.6,67.1,29.99,ENE,65,0.0,0.0,95,0.00,CLR,,0.00,WeatherDisplay:10.37,2013-07-12 10:22:00,
2013-07-12 05:27:00,68.4,66.9,29.99,ENE,65,0.0,0.0,95,0.00,CLR,,0.00,WeatherDisplay:10.37,2013-07-12 10:27:00,
2013-07-12 05:32:00,68.6,67.1,29.99,ENE,65,0.0,0.0,95,0.00,CLR,,0.00,WeatherDisplay:10.37,2013-07-12 10:32:00,
2013-07-12 05:37:00,68.6,67.1,29.99,ENE,65,0.0,0.0,95,0.00,CLR,,0.00,WeatherDisplay:10.37,2013-07-12 10:37:00,
2013-07-12 05:42:00,68.4,66.9,30.00,ENE,65,0.0,0.0,95,0.00,CLR,,0.00,WeatherDisplay:10.37,2013-07-12 10:42:00,
2013-07-12 05:47:00,68.3,66.8,30.00,ENE,65,0.0,0.0,95,0.00,CLR,,0.00,WeatherDisplay:10.37,2013-07-12 10:47:00,
2013-07-12 05:52:00,68.1,66.6,30.00,ENE,65,0.0,0.0,95,0.00,CLR,,0.00,WeatherDisplay:10.37,2013-07-12 10:52:00,
2013-07-12 05:57:00,68.1,66.6,30.00,ENE,65,0.0,0.0,95,0.00,CLR,,0.00,WeatherDisplay:10.37,2013-07-12 10:57:00,
2013-07-12 06:02:00,67.9,66.4,30.00,ENE,65,0.0,0.0,95,0.00,CLR,,0.00,WeatherDisplay:10.37,2013-07-12 11:02:00,
2013-07-12 06:07:00,67.9,66.4,30.00,ENE,65,0.0,0.0,95,0.00,CLR,,0.00,WeatherDisplay:10.37,2013-07-12 11:07:00,
2013-07-12 06:12:00,67.9,66.4,30.00,ENE,65,0.0,0.0,95,0.00,CLR,,0.00,WeatherDisplay:10.37,2013-07-12 11:12:00,
2013-07-12 06:17:00,68.1,66.6,30.00,ENE,65,0.0,0.0,95,0.00,CLR,,0.00,WeatherDisplay:10.37,2013-07-12 11:17:00,
2013-07-12 06:22:00,68.1,66.6,30.01,ENE,65,0.0,0.0,95,0.00,CLR,,0.00,WeatherDisplay:10.37,2013-07-12 11:22:00,
2013-07-12 06:27:00,68.3,66.8,30.01,ENE,74,0.0,0.0,95,0.00,CLR,,0.00,WeatherDisplay:10.37,2013-07-12 11:27:00,
2013-07-12 06:32:00,68.4,66.9,30.01,ENE,74,0.0,0.0,95,0.00,CLR,,0.00,WeatherDisplay:10.37,2013-07-12 11:32:00,
2013-07-12 06:37:00,68.6,67.1,30.02,ENE,73,1.1,1.1,95,0.00,CLR,,0.00,WeatherDisplay:10.37,2013-07-12 11:37:00,
2013-07-12 06:42:00,68.9,67.4,30.02,ENE,73,0.0,0.0,95,0.00,CLR,,0.00,WeatherDisplay:10.37,2013-07-12 11:42:00,
2013-07-12 06:47:00,69.3,67.8,30.01,ENE,73,0.0,0.0,95,0.00,CLR,,0.00,WeatherDisplay:10.37,2013-07-12 11:47:00,
2013-07-12 06:52:00,69.4,67.6,30.01,ENE,73,0.0,0.0,94,0.00,CLR,,0.00,WeatherDisplay:10.37,2013-07-12 11:52:00,
2013-07-12 06:57:00,69.8,68.0,30.01,ENE,73,0.0,0.0,94,0.00,CLR,,0.00,WeatherDisplay:10.37,2013-07-12 11:57:00,
2013-07-12 07:02:00,70.4,68.3,30.01,ENE,73,0.0,0.0,93,0.00,CLR,,0.00,WeatherDisplay:10.37,2013-07-12 12:02:00,
2013-07-12 07:07:00,71.1,68.3,30.02,ENE,73,0.0,0.0,91,0.00,CLR,,0.00,WeatherDisplay:10.37,2013-07-12 12:07:00,
2013-07-12 07:12:00,71.6,68.2,30.02,ENE,73,0.0,0.0,89,0.00,CLR,,0.00,WeatherDisplay:10.37,2013-07-12 12:12:00,
2013-07-12 07:17:00,72.3,67.9,30.02,ENE,73,0.0,0.0,86,0.00,CLR,,0.00,WeatherDisplay:10.37,2013-07-12 12:17:00,
2013-07-12 07:22:00,72.8,68.4,30.02,ENE,73,0.0,0.0,86,0.00,CLR,,0.00,WeatherDisplay:10.37,2013-07-12 12:22:00,
2013-07-12 07:27:00,73.3,68.5,30.02,ENE,73,1.1,1.1,85,0.00,CLR,,0.00,WeatherDisplay:10.37,2013-07-12 12:27:00,
2013-07-12 07:32:00,73.5,68.0,30.02,ENE,72,0.0,0.0,83,0.00,CLR,,0.00,WeatherDisplay:10.37,2013-07-12 12:32:00,
2013-07-12 07:37:00,73.7,68.2,30.02,ENE,72,1.1,1.1,83,0.00,CLR,,0.00,WeatherDisplay:10.37,2013-07-12 12:37:00,
2013-07-12 07:42:00,73.9,68.1,30.02,SE,134,0.0,0.0,82,0.00,CLR,,0.00,WeatherDisplay:10.37,2013-07-12 12:42:00,
2013-07-12 07:47:00,74.4,68.5,30.02,NNE,26,1.1,0.0,82,0.00,CLR,,0.00,WeatherDisplay:10.37,2013-07-12 12:47:00,
2013-07-12 07:52:00,75.1,68.5,30.02,NNE,26,0.0,0.0,80,0.00,CLR,,0.00,WeatherDisplay:10.37,2013-07-12 12:52:00,
2013-07-12 07:57:00,75.3,68.7,30.03,NNE,26,1.1,0.0,80,0.00,CLR,,0.00,WeatherDisplay:10.37,2013-07-12 12:57:00,
2013-07-12 08:02:00,75.4,68.8,30.03,ENE,78,0.0,0.0,80,0.00,CLR,,0.00,WeatherDisplay:10.37,2013-07-12 13:02:00,
2013-07-12 08:07:00,75.6,68.6,30.03,East,80,1.1,0.0,79,0.00,CLR,,0.00,WeatherDisplay:10.37,2013-07-12 13:07:00,
2013-07-12 08:12:00,75.8,68.8,30.03,NE,38,1.1,0.0,79,0.00,CLR,,0.00,WeatherDisplay:10.37,2013-07-12 13:12:00,
2013-07-12 08:17:00,76.0,68.3,30.03,East,84,2.3,2.3,77,0.00,CLR,,0.00,WeatherDisplay:10.37,2013-07-12 13:17:00,
2013-07-12 08:22:00,75.8,68.4,30.03,ESE,121,2.3,2.3,78,0.00,CLR,,0.00,WeatherDisplay:10.37,2013-07-12 13:22:00,
2013-07-12 08:27:00,75.8,68.8,30.03,SSE,161,4.6,4.6,79,0.00,CLR,,0.00,WeatherDisplay:10.37,2013-07-12 13:27:00,
2013-07-12 08:32:00,75.8,68.4,30.03,ENE,77,3.5,3.5,78,0.00,CLR,,0.00,WeatherDisplay:10.37,2013-07-12 13:32:00,
2013-07-12 08:37:00,76.0,69.0,30.03,NNE,23,2.3,0.0,79,0.00,CLR,,0.00,WeatherDisplay:10.37,2013-07-12 13:37:00,
2013-07-12 08:42:00,76.3,68.6,30.04,ENE,57,1.1,1.1,77,0.00,CLR,,0.00,WeatherDisplay:10.37,2013-07-12 13:42:00,
2013-07-12 08:47:00,76.7,69.7,30.04,NE,44,0.0,0.0,79,0.00,CLR,,0.00,WeatherDisplay:10.37,2013-07-12 13:47:00,
2013-07-12 08:52:00,77.2,69.8,30.04,NE,49,1.1,1.1,78,0.00,CLR,,0.00,WeatherDisplay:10.37,2013-07-12 13:52:00,
2013-07-12 08:57:00,77.4,69.2,30.04,NNE,26,3.5,3.5,76,0.00,CLR,,0.00,WeatherDisplay:10.37,2013-07-12 13:57:00,
2013-07-12 09:02:00,77.6,70.2,30.04,North,5,1.1,1.1,78,0.00,CLR,,0.00,WeatherDisplay:10.37,2013-07-12 14:02:00,
2013-07-12 09:07:00,77.7,69.1,30.04,NNE,30,3.5,3.5,75,0.00,CLR,,0.00,WeatherDisplay:10.37,2013-07-12 14:07:00,
2013-07-12 09:12:00,77.6,68.7,30.04,ESE,103,2.3,2.3,74,0.00,CLR,,0.00,WeatherDisplay:10.37,2013-07-12 14:12:00,
2013-07-12 09:17:00,77.7,68.7,30.04,NNE,32,3.5,3.5,74,0.00,CLR,,0.00,WeatherDisplay:10.37,2013-07-12 14:17:00,
2013-07-12 09:22:00,77.9,69.7,30.03,ENE,78,3.5,3.5,76,0.00,CLR,,0.00,WeatherDisplay:10.37,2013-07-12 14:22:00,
2013-07-12 09:27:00,78.1,69.1,30.04,NE,34,4.6,4.6,74,0.00,CLR,,0.00,WeatherDisplay:10.37,2013-07-12 14:27:00,
2013-07-12 09:32:00,78.6,70.4,30.04,North,11,1.1,1.1,76,0.00,CLR,,0.00,WeatherDisplay:10.37,2013-07-12 14:32:00,
2013-07-12 09:37:00,79.0,69.6,30.04,ENE,73,3.5,3.5,73,0.00,CLR,,0.00,WeatherDisplay:10.37,2013-07-12 14:37:00,
2013-07-12 09:42:00,79.2,71.0,30.03,NNW,333,1.1,0.0,76,0.00,CLR,,0.00,WeatherDisplay:10.37,2013-07-12 14:42:00,
2013-07-12 09:48:00,79.4,70.0,30.04,NNE,23,3.5,3.5,73,0.00,CLR,,0.00,WeatherDisplay:10.37,2013-07-12 14:48:00,
2013-07-12 09:53:00,79.4,70.0,30.04,East,95,2.3,2.3,73,0.00,CLR,,0.00,WeatherDisplay:10.37,2013-07-12 14:53:00,
2013-07-12 09:58:00,79.6,70.6,30.03,NE,49,1.1,1.1,74,0.00,CLR,,0.00,WeatherDisplay:10.37,2013-07-12 14:58:00,
2013-07-12 10:03:00,80.1,70.7,30.03,NNE,24,2.0,2.0,73,0.00,CLR,,0.00,WeatherDisplay:10.37,2013-07-12 15:03:00,
2013-07-12 10:08:00,80.7,70.4,30.03,ENE,69,3.5,3.5,71,0.00,CLR,,0.00,WeatherDisplay:10.37,2013-07-12 15:08:00,
2013-07-12 10:13:00,80.7,70.0,30.03,NE,38,0.0,0.0,70,0.00,CLR,,0.00,WeatherDisplay:10.37,2013-07-12 15:13:00,
2013-07-12 10:18:00,80.9,69.8,30.03,NE,34,7.0,7.0,69,0.00,CLR,,0.00,WeatherDisplay:10.37,2013-07-12 15:18:00,
2013-07-12 10:23:00,81.1,70.4,30.03,NNW,338,10.4,10.4,70,0.00,CLR,,0.00,WeatherDisplay:10.37,2013-07-12 15:23:00,
2013-07-12 10:28:00,81.2,70.9,30.03,NNE,22,3.5,3.5,71,0.00,CLR,,0.00,WeatherDisplay:10.37,2013-07-12 15:28:00,
2013-07-12 10:33:00,81.4,70.2,30.03,NNE,30,4.6,4.6,69,0.00,CLR,,0.00,WeatherDisplay:10.37,2013-07-12 15:33:00,
2013-07-12 10:38:00,81.6,70.0,30.03,NNE,14,3.5,3.5,68,0.00,CLR,,0.00,WeatherDisplay:10.37,2013-07-12 15:38:00,
2013-07-12 10:43:00,81.1,70.0,30.03,ENE,61,3.5,3.5,69,0.00,CLR,,0.00,WeatherDisplay:10.37,2013-07-12 15:43:00,
2013-07-12 10:48:00,80.7,69.6,30.03,NNE,21,3.5,3.5,69,0.00,CLR,,0.00,WeatherDisplay:10.37,2013-07-12 15:48:00,
2013-07-12 10:53:00,80.9,69.8,30.03,NNE,32,3.5,3.5,69,0.00,CLR,,0.00,WeatherDisplay:10.37,2013-07-12 15:53:00,
2013-07-12 10:58:00,81.2,70.5,30.03,North,5,3.5,3.5,70,0.00,CLR,,0.00,WeatherDisplay:10.37,2013-07-12 15:58:00,
2013-07-12 11:03:00,81.6,70.0,30.03,North,360,1.1,1.1,68,0.00,CLR,,0.00,WeatherDisplay:10.37,2013-07-12 16:03:00,
2013-07-12 11:08:00,82.0,70.4,30.03,NE,41,3.5,3.5,68,0.00,CLR,,0.00,WeatherDisplay:10.37,2013-07-12 16:08:00,
2013-07-12 11:13:00,81.8,69.8,30.03,NE,41,4.6,4.6,67,0.00,CLR,,0.00,WeatherDisplay:10.37,2013-07-12 16:13:00,
2013-07-12 11:18:00,81.8,70.2,30.03,ENE,78,2.3,2.3,68,0.00,CLR,,0.00,WeatherDisplay:10.37,2013-07-12 16:18:00,
2013-07-12 11:23:00,81.8,70.2,30.03,ENE,60,1.1,1.1,68,0.00,CLR,,0.00,WeatherDisplay:10.37,2013-07-12 16:23:00,
2013-07-12 11:28:00,81.6,69.6,30.03,SE,142,1.1,1.1,67,0.00,CLR,,0.00,WeatherDisplay:10.37,2013-07-12 16:28:00,
2013-07-12 11:33:00,81.8,70.6,30.03,North,355,3.5,0.0,69,0.00,CLR,,0.00,WeatherDisplay:10.37,2013-07-12 16:33:00,
2013-07-12 11:38:00,82.4,70.8,30.02,North,355,0.0,0.1,68,0.00,CLR,,0.00,WeatherDisplay:10.37,2013-07-12 16:38:00,
2013-07-12 11:43:00,82.6,70.5,30.02,East,90,3.5,3.5,67,0.00,CLR,,0.00,WeatherDisplay:10.37,2013-07-12 16:43:00,
2013-07-12 11:48:00,83.0,70.9,30.02,North,11,2.3,2.3,67,0.00,CLR,,0.00,WeatherDisplay:10.37,2013-07-12 16:48:00,
2013-07-12 11:54:00,83.4,71.7,30.02,NNE,32,1.1,1.1,68,0.00,CLR,,0.00,WeatherDisplay:10.37,2013-07-12 16:54:00,
2013-07-12 11:59:00,83.0,69.1,30.02,NE,40,10.4,10.4,63,0.00,CLR,,0.00,WeatherDisplay:10.37,2013-07-12 16:59:00,
2013-07-12 12:04:00,82.8,70.7,30.02,North,5,1.1,1.1,67,0.00,CLR,,0.00,WeatherDisplay:10.37,2013-07-12 17:04:00,
2013-07-12 12:09:00,83.4,71.3,30.02,NNW,327,3.5,3.5,67,0.00,CLR,,0.00,WeatherDisplay:10.37,2013-07-12 17:09:00,
2013-07-12 12:14:00,83.4,70.4,30.01,East,95,3.5,3.5,65,0.00,CLR,,0.00,WeatherDisplay:10.37,2013-07-12 17:14:00,
2013-07-12 12:19:00,84.1,71.1,30.01,ENE,59,1.1,1.1,65,0.00,CLR,,0.00,WeatherDisplay:10.37,2013-07-12 17:19:00,
2013-07-12 12:25:00,84.2,70.2,30.01,NE,52,2.0,7.0,63,0.00,CLR,,0.00,WeatherDisplay:10.37,2013-07-12 17:25:00,
2013-07-12 12:30:00,84.0,70.0,30.01,ENE,64,1.0,5.0,63,0.00,CLR,,0.00,WeatherDisplay:10.37,2013-07-12 17:30:00,
2013-07-12 12:35:00,83.8,68.9,30.01,NE,38,0.0,0.0,61,0.00,CLR,,0.00,WeatherDisplay:10.37,2013-07-12 17:35:00,
2013-07-12 12:40:00,84.0,68.6,30.01,NE,39,3.5,3.5,60,0.00,CLR,,0.00,WeatherDisplay:10.37,2013-07-12 17:40:00,
2013-07-12 12:45:00,84.3,71.7,30.01,ENE,67,3.5,3.5,66,0.00,CLR,,0.00,WeatherDisplay:10.37,2013-07-12 17:45:00,
2013-07-12 12:50:00,84.7,71.6,30.01,NNE,33,0.0,2.0,65,0.00,CLR,,0.00,WeatherDisplay:10.37,2013-07-12 17:50:00,
2013-07-12 12:55:00,85.3,68.8,30.01,ENE,62,4.6,4.6,58,0.00,CLR,,0.00,WeatherDisplay:10.37,2013-07-12 17:55:00,
2013-07-12 13:00:00,85.5,70.5,30.00,NE,41,0.0,5.0,61,0.00,CLR,,0.00,WeatherDisplay:10.37,2013-07-12 18:00:00,
2013-07-12 13:05:00,84.5,69.6,30.00,East,92,4.6,4.6,61,0.00,CLR,,0.00,WeatherDisplay:10.37,2013-07-12 18:05:00,
2013-07-12 13:10:00,84.5,69.6,30.00,NE,49,4.0,4.0,61,0.00,CLR,,0.00,WeatherDisplay:10.37,2013-07-12 18:10:00,
2013-07-12 13:16:00,84.5,69.1,30.00,NE,36,4.6,4.6,60,0.00,CLR,,0.00,WeatherDisplay:10.37,2013-07-12 18:16:00,
2013-07-12 13:21:00,84.1,69.2,30.00,NE,55,9.2,9.2,61,0.00,CLR,,0.00,WeatherDisplay:10.37,2013-07-12 18:21:00,
2013-07-12 13:26:00,84.0,68.6,30.00,NE,39,3.5,3.5,60,0.00,CLR,,0.00,WeatherDisplay:10.37,2013-07-12 18:26:00,
2013-07-12 13:31:00,84.1,69.2,30.00,NNE,16,4.0,4.0,61,0.00,CLR,,0.00,WeatherDisplay:10.37,2013-07-12 18:31:00,
2013-07-12 13:36:00,84.7,68.3,30.00,NNE,30,3.5,3.5,58,0.00,CLR,,0.00,WeatherDisplay:10.37,2013-07-12 18:36:00,
2013-07-12 13:41:00,84.9,68.5,30.00,ESE,106,5.0,5.0,58,0.00,CLR,,0.00,WeatherDisplay:10.37,2013-07-12 18:41:00,
2013-07-12 13:47:00,84.9,69.5,30.00,NE,51,1.1,1.1,60,0.00,CLR,,0.00,WeatherDisplay:10.37,2013-07-12 18:47:00,
2013-07-12 13:52:00,84.1,69.2,30.01,NE,44,1.1,1.1,61,0.00,CLR,,0.00,WeatherDisplay:10.37,2013-07-12 18:52:00,
2013-07-12 13:57:00,84.0,69.1,30.01,North,355,2.3,2.3,61,0.00,CLR,,0.00,WeatherDisplay:10.37,2013-07-12 18:57:00,
2013-07-12 14:02:00,84.1,70.1,30.01,NE,52,2.0,2.0,63,0.00,CLR,,0.00,WeatherDisplay:10.37,2013-07-12 19:02:00,
2013-07-12 14:07:00,84.5,70.0,30.01,West,266,7.0,7.0,62,0.00,CLR,,0.00,WeatherDisplay:10.37,2013-07-12 19:07:00,
2013-07-12 14:13:00,84.9,69.5,30.01,East,91,3.5,0.0,60,0.00,CLR,,0.00,WeatherDisplay:10.37,2013-07-12 19:13:00,
2013-07-12 14:18:00,85.1,68.2,30.01,NNE,32,6.0,6.0,57,0.00,CLR,,0.00,WeatherDisplay:10.37,2013-07-12 19:18:00,
2013-07-12 14:23:00,85.5,68.5,30.00,North,360,2.0,2.0,57,0.00,CLR,,0.00,WeatherDisplay:10.37,2013-07-12 19:23:00,
2013-07-12 14:28:00,85.5,69.0,30.00,NE,42,3.5,3.5,58,0.00,CLR,,0.00,WeatherDisplay:10.37,2013-07-12 19:28:00,
2013-07-12 14:33:00,85.9,69.9,30.00,NNW,340,1.1,1.1,59,0.00,CLR,,0.00,WeatherDisplay:10.37,2013-07-12 19:33:00,
2013-07-12 14:38:00,85.9,68.9,30.00,ESE,113,1.1,0.0,57,0.00,CLR,,0.00,WeatherDisplay:10.37,2013-07-12 19:38:00,
2013-07-12 14:43:00,85.9,69.9,30.00,NNE,26,9.0,9.0,59,0.00,CLR,,0.00,WeatherDisplay:10.37,2013-07-12 19:43:00,
2013-07-12 14:48:00,85.5,67.5,29.99,North,355,6.9,6.9,55,0.00,CLR,,0.00,WeatherDisplay:10.37,2013-07-12 19:48:00,
2013-07-12 14:54:00,85.5,68.5,29.99,NNE,19,4.6,0.0,57,0.00,CLR,,0.00,WeatherDisplay:10.37,2013-07-12 19:54:00,
2013-07-12 14:59:00,85.7,68.7,29.99,ENE,68,3.5,0.0,57,0.00,CLR,,0.00,WeatherDisplay:10.37,2013-07-12 19:59:00,
2013-07-12 15:05:00,85.8,69.3,29.99,East,83,0.0,6.0,58,0.00,CLR,,0.00,WeatherDisplay:10.37,2013-07-12 20:05:00,
2013-07-12 15:10:00,85.9,68.9,29.99,NE,49,2.3,2.3,57,0.00,CLR,,0.00,WeatherDisplay:10.37,2013-07-12 20:10:00,
2013-07-12 15:15:00,85.9,67.3,29.99,NNE,24,5.8,5.8,54,0.00,CLR,,0.00,WeatherDisplay:10.37,2013-07-12 20:15:00,
2013-07-12 15:20:00,85.9,67.9,29.99,ENE,77,3.5,3.5,55,0.00,CLR,,0.00,WeatherDisplay:10.37,2013-07-12 20:20:00,
2013-07-12 15:25:00,85.1,66.6,29.99,East,92,3.5,3.5,54,0.00,CLR,,0.00,WeatherDisplay:10.37,2013-07-12 20:25:00,
2013-07-12 15:31:00,84.7,67.8,29.99,West,276,2.3,2.3,57,0.00,CLR,,0.00,WeatherDisplay:10.37,2013-07-12 20:31:00,
2013-07-12 15:36:00,84.9,67.5,29.99,NNE,22,2.3,2.3,56,0.00,CLR,,0.00,WeatherDisplay:10.37,2013-07-12 20:36:00,
2013-07-12 15:41:00,84.9,67.5,29.98,NW,315,0.0,0.0,56,0.00,CLR,,0.00,WeatherDisplay:10.37,2013-07-12 20:41:00,
2013-07-12 15:46:00,85.5,67.0,29.98,NW,315,1.1,1.1,54,0.00,CLR,,0.00,WeatherDisplay:10.37,2013-07-12 20:46:00,
2013-07-12 15:52:00,85.7,66.6,29.98,NE,37,9.2,9.2,53,0.00,CLR,,0.00,WeatherDisplay:10.37,2013-07-12 20:52:00,
2013-07-12 15:57:00,85.9,66.8,29.97,WNW,285,2.3,2.3,53,0.00,CLR,,0.00,WeatherDisplay:10.37,2013-07-12 20:57:00,
2013-07-12 16:02:00,86.1,68.0,29.97,NW,317,1.1,0.0,55,0.00,CLR,,0.00,WeatherDisplay:10.37,2013-07-12 21:02:00,
2013-07-12 16:07:00,86.5,67.9,29.97,NNE,20,1.1,1.1,54,0.00,CLR,,0.00,WeatherDisplay:10.37,2013-07-12 21:07:00,
2013-07-12 16:12:00,86.1,68.0,29.98,NE,52,2.3,2.3,55,0.00,CLR,,0.00,WeatherDisplay:10.37,2013-07-12 21:12:00,
2013-07-12 16:18:00,85.7,66.6,29.98,WNW,282,3.5,3.5,53,0.00,CLR,,0.00,WeatherDisplay:10.37,2013-07-12 21:18:00,
2013-07-12 16:23:00,85.7,66.6,29.98,NNE,16,3.5,3.5,53,0.00,CLR,,0.00,WeatherDisplay:10.37,2013-07-12 21:23:00,
2013-07-12 16:28:00,85.7,66.6,29.98,West,277,1.1,0.0,53,0.00,CLR,,0.00,WeatherDisplay:10.37,2013-07-12 21:28:00,
2013-07-12 16:33:00,85.7,64.9,29.98,West,261,1.1,2.2,50,0.00,CLR,,0.00,WeatherDisplay:10.37,2013-07-12 21:33:00,
2013-07-12 16:39:00,85.3,66.2,29.98,NNW,329,1.1,0.0,53,0.00,CLR,,0.00,WeatherDisplay:10.37,2013-07-12 21:39:00,
2013-07-12 16:44:00,85.1,64.9,29.98,NNW,327,0.0,0.0,51,0.00,CLR,,0.00,WeatherDisplay:10.37,2013-07-12 21:44:00,
2013-07-12 16:49:00,84.7,65.7,29.98,NNW,327,0.0,0.0,53,0.00,CLR,,0.00,WeatherDisplay:10.37,2013-07-12 21:49:00,
2013-07-12 16:54:00,84.7,65.1,29.98,NNE,22,2.3,2.3,52,0.00,CLR,,0.00,WeatherDisplay:10.37,2013-07-12 21:54:00,
2013-07-12 17:00:00,84.7,65.1,29.98,NE,34,1.0,5.0,52,0.00,CLR,,0.00,WeatherDisplay:10.37,2013-07-12 22:00:00,
2013-07-12 17:07:00,84.5,66.0,29.98,NNW,348,3.5,3.5,54,0.00,CLR,,0.00,WeatherDisplay:10.37,2013-07-12 22:07:00,
2013-07-12 17:12:00,84.5,66.0,29.98,North,5,3.5,3.5,54,0.00,CLR,,0.00,WeatherDisplay:10.37,2013-07-12 22:12:00,
2013-07-12 17:17:00,84.3,65.3,29.99,NNE,24,3.5,3.5,53,0.00,CLR,,0.00,WeatherDisplay:10.37,2013-07-12 22:17:00,
2013-07-12 17:23:00,84.1,65.1,29.99,NNE,23,3.5,3.5,53,0.00,CLR,,0.00,WeatherDisplay:10.37,2013-07-12 22:23:00,
2013-07-12 17:28:00,84.1,64.6,29.99,NNE,18,3.5,3.5,52,0.00,CLR,,0.00,WeatherDisplay:10.37,2013-07-12 22:28:00,
2013-07-12 17:33:00,84.0,63.9,29.99,North,355,1.1,0.0,51,0.00,CLR,,0.00,WeatherDisplay:10.37,2013-07-12 22:33:00,
2013-07-12 17:38:00,83.8,64.3,29.99,North,11,1.1,0.0,52,0.00,CLR,,0.00,WeatherDisplay:10.37,2013-07-12 22:38:00,
2013-07-12 17:43:00,83.4,63.9,29.99,NNE,13,1.1,0.0,52,0.00,CLR,,0.00,WeatherDisplay:10.37,2013-07-12 22:43:00,
2013-07-12 17:49:00,83.2,64.8,29.99,NW,313,0.0,0.0,54,0.00,CLR,,0.00,WeatherDisplay:10.37,2013-07-12 22:49:00,
2013-07-12 17:54:00,83.0,64.1,29.99,NNE,25,4.6,4.6,53,0.00,CLR,,0.00,WeatherDisplay:10.37,2013-07-12 22:54:00,
2013-07-12 17:59:00,82.8,64.5,30.00,NNW,338,1.1,1.1,54,0.00,CLR,,0.00,WeatherDisplay:10.37,2013-07-12 22:59:00,
2013-07-12 18:04:00,82.8,65.5,30.00,NNW,339,2.3,0.0,56,0.00,CLR,,0.00,WeatherDisplay:10.37,2013-07-12 23:04:00,
2013-07-12 18:09:00,82.6,65.8,30.00,NNE,14,3.0,3.0,57,0.00,CLR,,0.00,WeatherDisplay:10.37,2013-07-12 23:09:00,
2013-07-12 18:14:00,82.4,65.6,30.00,NNW,342,3.5,3.5,57,0.00,CLR,,0.00,WeatherDisplay:10.37,2013-07-12 23:14:00,
2013-07-12 18:19:00,82.2,66.0,30.00,NNW,342,1.1,0.0,58,0.00,CLR,,0.00,WeatherDisplay:10.37,2013-07-12 23:19:00,
2013-07-12 18:25:00,82.0,65.2,30.00,NNW,341,0.0,1.0,57,0.00,CLR,,0.00,WeatherDisplay:10.37,2013-07-12 23:25:00,
2013-07-12 18:30:00,81.6,65.4,30.00,NNW,339,1.1,1.1,58,0.00,CLR,,0.00,WeatherDisplay:10.37,2013-07-12 23:30:00,
2013-07-12 18:35:00,81.4,65.2,30.00,North,355,3.5,3.5,58,0.00,CLR,,0.00,WeatherDisplay:10.37,2013-07-12 23:35:00,
2013-07-12 18:41:00,81.1,63.9,30.00,NNW,327,3.5,3.5,56,0.00,CLR,,0.00,WeatherDisplay:10.37,2013-07-12 23:41:00,
2013-07-12 18:46:00,80.9,65.2,30.00,NNW,333,3.5,0.0,59,0.00,CLR,,0.00,WeatherDisplay:10.37,2013-07-12 23:46:00,
2013-07-12 18:52:00,80.9,65.7,30.01,NNW,333,0.0,0.0,60,0.00,CLR,,0.00,WeatherDisplay:10.37,2013-07-12 23:52:00,
2013-07-12 18:57:00,80.3,66.6,30.01,NNW,333,0.0,0.0,63,0.00,CLR,,0.00,WeatherDisplay:10.37,2013-07-12 23:57:00,
2013-07-12 19:02:00,79.6,66.3,30.01,NNW,333,0.0,0.0,64,0.00,CLR,,0.00,WeatherDisplay:10.37,2013-07-13 00:02:00,
2013-07-12 19:07:00,79.0,66.2,30.01,NNW,347,3.5,0.0,65,0.00,CLR,,0.00,WeatherDisplay:10.37,2013-07-13 00:07:00,
2013-07-12 19:12:00,78.5,66.6,30.01,NNW,347,0.0,0.0,67,0.00,CLR,,0.00,WeatherDisplay:10.37,2013-07-13 00:12:00,
2013-07-12 19:17:00,77.9,66.1,30.02,NNW,347,0.0,0.0,67,0.00,CLR,,0.00,WeatherDisplay:10.37,2013-07-13 00:17:00,
2013-07-12 19:23:00,77.4,64.7,30.02,NNW,347,0.0,0.0,65,0.00,CLR,,0.00,WeatherDisplay:10.37,2013-07-13 00:23:00,
2013-07-12 19:28:00,77.2,65.0,30.02,NNW,347,0.0,0.0,66,0.00,CLR,,0.00,WeatherDisplay:10.37,2013-07-13 00:28:00,
2013-07-12 19:33:00,77.0,63.9,30.02,NW,323,0.0,0.0,64,0.00,CLR,,0.00,WeatherDisplay:10.37,2013-07-13 00:33:00,
2013-07-12 19:38:00,77.0,64.3,30.02,NW,326,1.1,1.1,65,0.00,CLR,,0.00,WeatherDisplay:10.37,2013-07-13 00:38:00,
2013-07-12 19:43:00,77.0,64.3,30.02,NW,326,0.0,0.0,65,0.00,CLR,,0.00,WeatherDisplay:10.37,2013-07-13 00:43:00,
2013-07-12 19:48:00,76.8,64.1,30.02,NW,326,0.0,0.0,65,0.00,CLR,,0.00,WeatherDisplay:10.37,2013-07-13 00:48:00,
2013-07-12 19:53:00,76.8,63.7,30.02,North,5,3.5,3.5,64,0.00,CLR,,0.00,WeatherDisplay:10.37,2013-07-13 00:53:00,
2013-07-12 19:58:00,76.8,63.7,30.02,NNW,343,3.5,3.5,64,0.00,CLR,,0.00,WeatherDisplay:10.37,2013-07-13 00:58:00,
2013-07-12 20:03:00,76.8,63.7,30.02,WNW,295,2.3,2.3,64,0.00,CLR,,0.00,WeatherDisplay:10.37,2013-07-13 01:03:00,
2013-07-12 20:08:00,76.7,63.6,30.02,NW,313,1.1,1.1,64,0.00,CLR,,0.00,WeatherDisplay:10.37,2013-07-13 01:08:00,
2013-07-12 20:14:00,76.5,63.0,30.03,WNW,286,3.5,3.5,63,0.00,CLR,,0.00,WeatherDisplay:10.37,2013-07-13 01:14:00,
2013-07-12 20:19:00,76.1,63.0,30.03,NW,306,1.1,1.1,64,0.00,CLR,,0.00,WeatherDisplay:10.37,2013-07-13 01:19:00,
2013-07-12 20:24:00,76.0,62.5,30.03,NW,322,1.1,0.0,63,0.00,CLR,,0.00,WeatherDisplay:10.37,2013-07-13 01:24:00,
2013-07-12 20:29:00,75.6,62.6,30.03,NNW,338,1.0,0.0,64,0.00,CLR,,0.00,WeatherDisplay:10.37,2013-07-13 01:29:00,
2013-07-12 20:34:00,75.3,61.8,30.03,NNW,333,1.0,1.0,63,0.00,CLR,,0.00,WeatherDisplay:10.37,2013-07-13 01:34:00,
2013-07-12 20:40:00,75.1,62.5,30.03,NNW,331,0.0,1.0,65,0.00,CLR,,0.00,WeatherDisplay:10.37,2013-07-13 01:40:00,
2013-07-12 20:45:00,74.6,62.5,30.03,NNW,337,0.0,0.0,66,0.00,CLR,,0.00,WeatherDisplay:10.37,2013-07-13 01:45:00,
2013-07-12 20:50:00,74.2,62.5,30.04,NNW,337,0.0,1.0,67,0.00,CLR,,0.00,WeatherDisplay:10.37,2013-07-13 01:50:00,
2013-07-12 20:55:00,73.9,61.8,30.03,NE,36,0.0,0.0,66,0.00,CLR,,0.00,WeatherDisplay:10.37,2013-07-13 01:55:00,
2013-07-12 21:00:00,73.7,61.6,30.03,NNE,13,0.0,0.0,66,0.00,CLR,,0.00,WeatherDisplay:10.37,2013-07-13 02:00:00,
2013-07-12 21:05:00,73.5,61.4,30.03,NNE,13,0.0,0.0,66,0.00,CLR,,0.00,WeatherDisplay:10.37,2013-07-13 02:05:00,
2013-07-12 21:10:00,73.2,61.2,30.04,NNE,13,0.0,0.0,66,0.00,CLR,,0.00,WeatherDisplay:10.37,2013-07-13 02:10:00,
2013-07-12 21:15:00,73.0,61.0,30.04,NNE,17,0.0,0.0,66,0.00,CLR,,0.00,WeatherDisplay:10.37,2013-07-13 02:15:00,
2013-07-12 21:20:00,72.8,60.8,30.04,NNE,17,0.0,0.0,66,0.00,CLR,,0.00,WeatherDisplay:10.37,2013-07-13 02:20:00,
2013-07-12 21:25:00,72.7,60.7,30.04,NNE,17,0.0,0.0,66,0.00,CLR,,0.00,WeatherDisplay:10.37,2013-07-13 02:25:00,
2013-07-12 21:30:00,72.5,60.5,30.04,NNE,17,0.0,0.0,66,0.00,CLR,,0.00,WeatherDisplay:10.37,2013-07-13 02:30:00,
2013-07-12 21:35:00,72.5,60.1,30.04,North,355,0.0,0.0,65,0.00,CLR,,0.00,WeatherDisplay:10.37,2013-07-13 02:35:00,
2013-07-12 21:40:00,72.5,60.1,30.05,North,355,0.0,0.0,65,0.00,CLR,,0.00,WeatherDisplay:10.37,2013-07-13 02:40:00,
2013-07-12 21:46:00,72.5,60.1,30.05,North,355,0.0,0.0,65,0.00,CLR,,0.00,WeatherDisplay:10.37,2013-07-13 02:46:00,
2013-07-12 21:51:00,72.5,59.6,30.05,North,355,2.3,2.3,64,0.00,CLR,,0.00,WeatherDisplay:10.37,2013-07-13 02:51:00,
2013-07-12 21:56:00,72.5,60.1,30.05,North,355,1.1,0.0,65,0.00,CLR,,0.00,WeatherDisplay:10.37,2013-07-13 02:56:00,
2013-07-12 22:01:00,72.3,59.9,30.05,North,355,3.5,3.5,65,0.00,CLR,,0.00,WeatherDisplay:10.37,2013-07-13 03:01:00,
2013-07-12 22:06:00,72.1,59.7,30.05,North,355,1.1,1.1,65,0.00,CLR,,0.00,WeatherDisplay:10.37,2013-07-13 03:06:00,
2013-07-12 22:11:00,72.0,59.6,30.05,North,349,2.3,0.0,65,0.00,CLR,,0.00,WeatherDisplay:10.37,2013-07-13 03:11:00,
2013-07-12 22:16:00,72.0,59.6,30.05,NE,40,1.1,0.0,65,0.00,CLR,,0.00,WeatherDisplay:10.37,2013-07-13 03:16:00,
2013-07-12 22:21:00,71.8,59.8,30.05,NE,39,1.1,0.0,66,0.00,CLR,,0.00,WeatherDisplay:10.37,2013-07-13 03:21:00,
2013-07-12 22:27:00,71.6,59.6,30.05,NE,39,1.1,0.0,66,0.00,CLR,,0.00,WeatherDisplay:10.37,2013-07-13 03:27:00,
2013-07-12 22:32:00,71.5,59.5,30.05,NE,39,1.1,0.0,66,0.00,CLR,,0.00,WeatherDisplay:10.37,2013-07-13 03:32:00,
2013-07-12 22:37:00,71.5,59.5,30.05,NE,38,0.0,0.0,66,0.00,CLR,,0.00,WeatherDisplay:10.37,2013-07-13 03:37:00,
2013-07-12 22:42:00,71.3,59.8,30.05,NW,311,0.0,0.0,67,0.00,CLR,,0.00,WeatherDisplay:10.37,2013-07-13 03:42:00,
2013-07-12 22:47:00,71.1,59.6,30.05,NW,311,0.0,0.0,67,0.00,CLR,,0.00,WeatherDisplay:10.37,2013-07-13 03:47:00,
2013-07-12 22:52:00,70.9,59.4,30.05,NW,311,0.0,0.0,67,0.00,CLR,,0.00,WeatherDisplay:10.37,2013-07-13 03:52:00,
2013-07-12 22:57:00,70.8,60.5,30.06,NW,311,0.0,0.0,70,0.00,CLR,,0.00,WeatherDisplay:10.37,2013-07-13 03:57:00,
2013-07-12 23:01:00,70.4,60.1,30.05,NW,311,0.0,0.0,70,0.00,CLR,,0.00,WeatherDisplay:10.37,2013-07-13 04:01:00,
2013-07-12 23:02:00,70.4,60.1,30.05,NW,311,0.0,0.0,70,0.00,CLR,,0.00,WeatherDisplay:10.37,2013-07-13 04:02:00,
2013-07-12 23:03:00,70.3,60.1,30.05,NW,311,0.0,0.0,70,0.00,CLR,,0.00,WeatherDisplay:10.37,2013-07-13 04:03:00,
2013-07-12 23:08:00,69.8,60.4,30.05,NW,311,0.0,0.0,72,0.00,CLR,,0.00,WeatherDisplay:10.37,2013-07-13 04:08:00,
2013-07-12 23:13:00,69.4,60.0,30.05,NW,311,0.0,0.0,72,0.00,CLR,,0.00,WeatherDisplay:10.37,2013-07-13 04:13:00,
2013-07-12 23:18:00,69.1,60.5,30.05,NW,311,0.0,0.0,74,0.00,CLR,,0.00,WeatherDisplay:10.37,2013-07-13 04:18:00,
2013-07-12 23:23:00,68.8,60.6,30.05,NW,311,0.0,0.0,75,0.00,CLR,,0.00,WeatherDisplay:10.37,2013-07-13 04:23:00,
2013-07-12 23:28:00,68.6,60.7,30.05,NW,311,0.0,0.0,76,0.00,CLR,,0.00,WeatherDisplay:10.37,2013-07-13 04:28:00,
2013-07-12 23:33:00,68.3,60.8,30.05,NW,311,0.0,0.0,77,0.00,CLR,,0.00,WeatherDisplay:10.37,2013-07-13 04:33:00,
2013-07-12 23:38:00,68.3,60.8,30.05,NW,311,0.0,0.0,77,0.00,CLR,,0.00,WeatherDisplay:10.37,2013-07-13 04:38:00,
2013-07-12 23:43:00,68.1,61.3,30.05,NW,311,0.0,0.0,79,0.00,CLR,,0.00,WeatherDisplay:10.37,2013-07-13 04:43:00,
2013-07-12 23:48:00,67.9,61.5,30.05,NW,311,0.0,0.0,80,0.00,CLR,,0.00,WeatherDisplay:10.37,2013-07-13 04:48:00,
2013-07-12 23:53:00,67.6,61.2,30.05,NW,311,0.0,0.0,80,0.00,CLR,,0.00,WeatherDisplay:10.37,2013-07-13 04:53:00,
2013-07-12 23:58:00,67.3,61.3,30.04,NW,311,0.0,0.0,81,0.00,CLR,,0.00,WeatherDisplay:10.37,2013-07-13 04:58:00,